Time;durP1;ratioP1;P1;durP2;ratioP2;P2;SDS_P1;SDS_P2;PMS_P1;PMS_P2;Temp;Humidity;BMP_temperature;BMP_pressure;BME280_temperature;BME280_humidity;BME280_pressure;Samples;Min_cycle;Max_cycle;Signal;HPM_P1;HPM_P2
2021/07/16 04:21:59;;;;;;;11.50;9.27;;;;;;;21.63;90.89;98665.33;125276;1093;64335;-82
2021/07/16 04:24:26;;;;;;;11.53;10.33;;;;;;;21.67;90.56;98659.36;124994;1093;64260;-81
2021/07/16 04:26:53;;;;;;;10.80;9.50;;;;;;;21.73;90.04;98667.80;124983;1093;64188;-82
2021/07/16 04:29:20;;;;;;;8.07;7.37;;;;;;;21.97;89.52;98669.45;125038;1093;64210;-81
2021/07/16 04:31:48;;;;;;;10.57;8.67;;;;;;;22.43;88.50;98670.18;124913;1093;64248;-81
2021/07/16 04:34:15;;;;;;;10.47;7.63;;;;;;;22.67;87.55;98670.93;125016;1093;64268;-81
2021/07/16 04:36:43;;;;;;;9.67;7.67;;;;;;;22.87;86.84;98669.33;124959;1093;64344;-81
2021/07/16 04:39:13;;;;;;;7.17;6.57;;;;;;;23.07;85.93;98674.22;124994;1093;64214;-81
2021/07/16 04:41:40;;;;;;;7.83;7.03;;;;;;;23.62;85.05;98678.17;124964;1093;64230;-80
2021/07/16 04:44:08;;;;;;;8.60;7.70;;;;;;;24.17;83.84;98673.86;124964;1093;64438;-80
2021/07/16 04:46:35;;;;;;;9.13;8.23;;;;;;;24.66;82.23;98680.28;124991;1093;64692;-80
2021/07/16 04:49:02;;;;;;;9.55;8.55;;;;;;;24.85;81.50;98690.44;125002;1093;64276;-80
2021/07/16 04:51:33;;;;;;;13.20;10.50;;;;;;;25.01;80.54;98688.41;124988;1093;64264;-80
2021/07/16 04:54:01;;;;;;;10.83;9.93;;;;;;;25.18;79.86;98692.52;124961;1093;64290;-81
2021/07/16 04:56:29;;;;;;;12.10;10.90;;;;;;;24.91;79.99;98699.72;125012;1093;64230;-80
2021/07/16 04:58:56;;;;;;;12.50;11.23;;;;;;;24.50;80.34;98695.91;124945;1093;64290;-80
2021/07/16 05:01:25;;;;;;;16.30;11.53;;;;;;;24.19;81.36;98703.60;124980;1093;64188;-80
2021/07/16 05:03:54;;;;;;;14.07;12.67;;;;;;;23.89;81.47;98709.22;125048;1093;64303;-81
2021/07/16 05:06:23;;;;;;;14.10;12.67;;;;;;;23.61;81.86;98709.11;124926;1093;64377;-81
2021/07/16 05:08:51;;;;;;;13.45;12.05;;;;;;;23.35;82.29;98717.81;124983;1093;62835;-80
2021/07/16 05:11:20;;;;;;;13.23;11.93;;;;;;;23.06;82.50;98716.00;124932;1093;64405;-80
2021/07/16 05:13:48;;;;;;;16.60;14.17;;;;;;;22.89;83.31;98716.19;124991;1093;64326;-81
2021/07/16 05:16:17;;;;;;;18.20;14.73;;;;;;;22.73;83.10;98722.66;124982;1093;64156;-80
2021/07/16 05:18:45;;;;;;;17.03;15.33;;;;;;;22.61;84.15;98713.27;124992;1093;64370;-80
2021/07/16 05:21:14;;;;;;;15.50;13.90;;;;;;;22.61;84.27;98712.44;124958;1093;64299;-81
2021/07/16 05:23:43;;;;;;;17.10;15.30;;;;;;;22.63;84.65;98723.97;125010;1093;64287;-80
2021/07/16 05:26:12;;;;;;;16.97;15.13;;;;;;;22.61;84.45;98732.28;124964;1093;64279;-80
2021/07/16 05:28:39;;;;;;;15.63;14.13;;;;;;;22.66;84.61;98731.73;125023;1093;64339;-80
2021/07/16 05:31:08;;;;;;;17.37;14.70;;;;;;;22.66;84.45;98739.89;125026;1093;64248;-80
2021/07/16 05:33:35;;;;;;;18.13;16.30;;;;;;;22.60;84.61;98740.64;124918;1093;64801;-80
2021/07/16 05:36:04;;;;;;;19.90;15.57;;;;;;;22.58;84.46;98732.66;124971;1093;64248;-80
2021/07/16 05:38:33;;;;;;;17.20;14.57;;;;;;;22.63;84.19;98727.52;125056;1093;64367;-80
2021/07/16 05:41:01;;;;;;;20.65;15.40;;;;;;;22.86;84.16;98735.59;125013;1093;64284;-80
2021/07/16 05:43:29;;;;;;;21.40;16.53;;;;;;;22.90;83.60;98747.75;124911;1092;64315;-81
2021/07/16 05:45:56;;;;;;;23.20;19.77;;;;;;;22.90;83.63;98750.47;124963;1092;64169;-81
2021/07/16 05:48:23;;;;;;;22.77;18.03;;;;;;;22.93;83.59;98760.13;124986;1093;64308;-81
2021/07/16 05:50:50;;;;;;;22.00;18.50;;;;;;;22.90;83.70;98753.19;124932;1093;64647;-81
2021/07/16 05:53:18;;;;;;;20.27;18.17;;;;;;;22.84;83.60;98758.54;125008;1093;64287;-81
2021/07/16 05:55:45;;;;;;;21.70;18.97;;;;;;;22.75;83.53;98757.80;124984;1093;64274;-81
2021/07/16 05:58:12;;;;;;;20.80;18.37;;;;;;;22.68;83.95;98752.25;124973;1093;64380;-81
2021/07/16 06:00:39;;;;;;;18.87;16.70;;;;;;;22.60;84.19;98757.77;124943;1093;64268;-81
2021/07/16 06:03:08;;;;;;;22.50;18.43;;;;;;;22.61;84.07;98758.61;124981;1092;64273;-81
2021/07/16 06:05:36;;;;;;;24.33;16.87;;;;;;;22.77;84.26;98755.72;124912;1093;64386;-81
2021/07/16 06:08:04;;;;;;;21.13;17.73;;;;;;;22.98;83.84;98755.84;125001;1093;64386;-81
2021/07/16 06:10:32;;;;;;;20.83;18.10;;;;;;;23.15;83.52;98756.50;124976;1093;64187;-81
2021/07/16 06:12:59;;;;;;;28.05;19.35;;;;;;;23.32;83.28;98759.00;124995;1093;64287;-81
2021/07/16 06:15:26;;;;;;;22.60;20.30;;;;;;;23.44;82.84;98757.48;124909;1093;64242;-81
2021/07/16 06:17:54;;;;;;;25.35;19.50;;;;;;;23.53;82.49;98759.03;125014;1092;64306;-81
2021/07/16 06:20:21;;;;;;;23.40;20.80;;;;;;;23.62;82.32;98757.91;124983;1093;64288;-81
2021/07/16 06:22:48;;;;;;;24.40;20.93;;;;;;;23.70;81.73;98751.50;124870;1093;64275;-81
2021/07/16 06:25:18;;;;;;;26.87;21.53;;;;;;;23.66;81.55;98756.47;124992;1093;64216;-81
2021/07/16 06:27:47;;;;;;;24.23;21.55;;;;;;;23.63;81.63;98756.02;125071;1093;64258;-81
2021/07/16 06:30:16;;;;;;;28.83;25.47;;;;;;;23.55;81.39;98750.70;125017;1093;64309;-79
2021/07/16 06:32:45;;;;;;;31.68;24.80;;;;;;;23.49;81.52;98756.92;124948;1093;64283;-80
2021/07/16 06:35:14;;;;;;;31.77;27.20;;;;;;;23.35;81.57;98759.45;124898;1093;64287;-79
2021/07/16 06:37:41;;;;;;;29.65;26.50;;;;;;;23.26;81.98;98765.20;124948;1093;64271;-80
2021/07/16 06:40:09;;;;;;;35.53;28.90;;;;;;;23.14;82.17;98762.11;124981;1092;64271;-80
2021/07/16 06:42:36;;;;;;;32.60;29.07;;;;;;;23.09;82.54;98761.83;124900;1093;64258;-81
2021/07/16 06:45:06;;;;;;;34.90;27.23;;;;;;;23.04;82.75;98761.55;124950;1093;64274;-80
2021/07/16 06:47:34;;;;;;;37.50;29.55;;;;;;;22.97;82.77;98759.59;124955;1093;64511;-79
2021/07/16 06:50:01;;;;;;;34.13;28.73;;;;;;;22.95;82.76;98768.94;124966;1093;64213;-80
2021/07/16 06:52:28;;;;;;;36.63;30.53;;;;;;;22.92;83.10;98759.28;125009;1092;64271;-79
2021/07/16 06:54:56;;;;;;;33.00;28.20;;;;;;;22.92;82.99;98763.88;124929;1093;64293;-80
2021/07/16 06:57:23;;;;;;;39.13;30.20;;;;;;;22.89;82.97;98772.41;124999;1093;64287;-80
2021/07/16 06:59:50;;;;;;;38.90;31.40;;;;;;;22.90;82.93;98771.38;124956;1093;64245;-80
2021/07/16 07:02:17;;;;;;;39.87;30.23;;;;;;;22.93;83.24;98771.86;124980;1093;64399;-81
2021/07/16 07:04:44;;;;;;;36.47;28.73;;;;;;;23.06;83.29;98775.80;124999;1093;64156;-81
2021/07/16 07:07:11;;;;;;;35.15;29.90;;;;;;;23.15;82.88;98775.53;124993;1092;64244;-78
2021/07/16 07:09:39;;;;;;;34.80;27.13;;;;;;;23.31;82.77;98771.76;125019;1093;64306;-81
2021/07/16 07:12:06;;;;;;;36.87;28.93;;;;;;;23.54;82.78;98768.91;124998;1093;64385;-80
2021/07/16 07:14:33;;;;;;;38.80;28.77;;;;;;;23.71;82.04;98766.78;125004;1093;64323;-81
2021/07/16 07:17:01;;;;;;;30.37;26.20;;;;;;;23.81;80.90;98763.78;124999;1093;64280;-80
2021/07/16 07:19:29;;;;;;;32.33;27.00;;;;;;;23.73;80.68;98769.35;125000;1093;64335;-81
2021/07/16 07:21:56;;;;;;;38.13;31.17;;;;;;;23.65;81.33;98770.28;124988;1093;64274;-80
2021/07/16 07:24:24;;;;;;;39.20;30.70;;;;;;;23.63;81.18;98769.63;125010;1093;64406;-81
2021/07/16 07:26:54;;;;;;;33.97;29.90;;;;;;;23.59;81.44;98765.59;124971;1093;64351;-80
2021/07/16 07:29:21;;;;;;;44.17;33.40;;;;;;;23.70;81.65;98765.11;124983;1092;64293;-80
2021/07/16 07:31:49;;;;;;;37.00;31.27;;;;;;;23.99;81.53;98766.06;125016;1093;64189;-80
2021/07/16 07:34:16;;;;;;;33.20;29.10;;;;;;;24.21;80.88;98762.27;125038;1092;64270;-80
2021/07/16 07:36:47;;;;;;;49.47;37.97;;;;;;;24.31;80.30;98760.06;124961;1093;64293;-80
2021/07/16 07:39:15;;;;;;;52.87;40.63;;;;;;;24.38;80.36;98760.13;124936;1093;64459;-80
2021/07/16 07:41:45;;;;;;;45.43;36.43;;;;;;;24.40;80.21;98752.58;124979;1093;64265;-80
2021/07/16 07:44:14;;;;;;;41.13;33.90;;;;;;;24.42;80.39;98761.41;124944;1093;64271;-80
2021/07/16 07:46:43;;;;;;;43.98;33.08;;;;;;;24.42;80.24;98753.23;125017;1093;64218;-80
2021/07/16 07:49:13;;;;;;;48.23;37.03;;;;;;;24.32;79.53;98761.73;125076;1092;64309;-80
2021/07/16 07:51:41;;;;;;;43.35;37.05;;;;;;;24.17;79.93;98768.30;125035;1093;64358;-80
2021/07/16 07:54:09;;;;;;;43.33;35.40;;;;;;;24.09;80.50;98767.42;125168;1092;64279;-81
2021/07/16 07:56:38;;;;;;;44.00;35.13;;;;;;;24.06;80.89;98770.51;125011;1093;64271;-80
2021/07/16 07:59:06;;;;;;;46.77;34.07;;;;;;;24.07;80.74;98772.21;125146;1093;64689;-80
2021/07/16 08:01:36;;;;;;;38.35;30.90;;;;;;;24.07;80.80;98780.38;125195;1093;64427;-80
2021/07/16 08:04:04;;;;;;;36.07;31.80;;;;;;;24.04;80.84;98785.35;125125;1093;64316;-80
2021/07/16 08:06:31;;;;;;;38.80;32.93;;;;;;;24.06;80.90;98789.56;125105;1093;64281;-80
2021/07/16 08:08:59;;;;;;;37.57;31.70;;;;;;;24.02;80.76;98796.45;125114;1093;64187;-80
2021/07/16 08:11:29;;;;;;;36.87;32.07;;;;;;;24.06;80.95;98797.73;125142;1093;64290;-81
2021/07/16 08:13:58;;;;;;;37.37;32.70;;;;;;;24.11;81.17;98805.33;125143;1093;64268;-80
2021/07/16 08:16:26;;;;;;;41.90;33.93;;;;;;;24.25;81.04;98811.73;125143;1093;64271;-81
2021/07/16 08:18:54;;;;;;;40.67;35.70;;;;;;;24.38;80.73;98816.47;125135;1093;64281;-80
2021/07/16 08:21:24;;;;;;;41.50;33.55;;;;;;;24.42;80.69;98820.50;125139;1093;65495;-79
2021/07/16 08:23:52;;;;;;;40.17;35.13;;;;;;;24.53;80.52;98820.83;125119;1093;64274;-80
2021/07/16 08:26:19;;;;;;;39.87;34.50;;;;;;;24.69;80.18;98827.88;125157;1093;64411;-80
2021/07/16 08:28:46;;;;;;;42.10;34.00;;;;;;;24.87;80.01;98824.66;125116;1092;64268;-80
2021/07/16 08:31:13;;;;;;;37.90;33.93;;;;;;;25.17;79.79;98822.59;125102;1092;64284;-80
2021/07/16 08:33:40;;;;;;;37.70;33.30;;;;;;;25.55;79.25;98819.41;125024;1093;64194;-78
2021/07/16 08:36:08;;;;;;;39.60;34.30;;;;;;;25.91;77.93;98821.05;125115;1092;64898;-87
2021/07/16 08:38:35;;;;;;;39.77;32.07;;;;;;;26.16;77.41;98825.93;125372;1093;64325;-87
2021/07/16 08:41:02;;;;;;;33.10;29.80;;;;;;;26.44;77.30;98825.77;125096;1093;64444;-88
2021/07/16 08:43:32;;;;;;;39.30;34.43;;;;;;;26.67;76.36;98830.83;125069;1093;64242;-88
2021/07/16 08:46:01;;;;;;;37.40;33.63;;;;;;;27.03;75.82;98824.91;124967;1093;64287;-87
2021/07/16 08:48:30;;;;;;;39.30;35.10;;;;;;;27.43;75.24;98813.05;125156;1093;64223;-87
2021/07/16 08:51:00;;;;;;;37.48;33.58;;;;;;;27.97;73.53;98814.52;125167;1093;64287;-88
2021/07/16 08:53:29;;;;;;;39.27;35.27;;;;;;;28.15;72.84;98809.14;125089;1093;64409;-88
2021/07/16 08:55:57;;;;;;;38.77;34.87;;;;;;;28.30;71.74;98802.48;124973;1093;64197;-88
2021/07/16 08:58:24;;;;;;;39.03;35.23;;;;;;;28.34;70.88;98795.52;125110;1093;64298;-88
2021/07/16 09:00:51;;;;;;;37.60;33.80;;;;;;;28.27;70.06;98802.94;124930;1092;64252;-87
2021/07/16 09:03:19;;;;;;;39.60;35.70;;;;;;;28.20;71.01;98803.84;124859;1093;64221;-87
2021/07/16 09:05:46;;;;;;;35.90;32.25;;;;;;;28.24;70.84;98801.48;125137;1093;64370;-87
2021/07/16 09:08:16;;;;;;;42.23;37.97;;;;;;;28.38;71.15;98791.25;125073;1093;64293;-88
2021/07/16 09:10:49;;;;;;;39.47;35.30;;;;;;;28.51;68.76;98790.34;125116;1093;64728;-83
2021/07/16 09:13:18;;;;;;;41.70;37.07;;;;;;;28.61;69.60;98779.71;125179;1093;64334;-76
2021/07/16 09:15:57;;;;;;;36.35;32.88;;;;;;;28.62;69.68;98776.75;125006;1093;64337;-76
2021/07/16 09:18:28;;;;;;;43.23;36.38;;;;;;;28.69;70.26;98778.59;125032;1093;64278;-76
2021/07/16 09:21:01;;;;;;;35.87;32.40;;;;;;;28.93;69.77;98771.39;125063;1092;64367;-76
2021/07/16 09:23:39;;;;;;;36.55;33.20;;;;;;;29.12;68.62;98770.34;124997;1092;64294;-76
2021/07/16 09:26:17;;;;;;;35.90;32.43;;;;;;;29.07;68.89;98768.31;125028;1092;64188;-76
2021/07/16 09:28:46;;;;;;;36.87;33.40;;;;;;;29.05;67.97;98780.59;124995;1093;64457;-76
2021/07/16 09:31:17;;;;;;;37.97;34.13;;;;;;;28.91;68.23;98785.31;125034;1092;64297;-77
2021/07/16 09:33:54;;;;;;;37.50;34.00;;;;;;;28.76;67.88;98793.09;125003;1093;64334;-77
2021/07/16 09:36:38;;;;;;;38.00;34.27;;;;;;;28.65;68.14;98778.21;125033;1093;64300;-77
2021/07/16 09:39:13;;;;;;;36.00;32.57;;;;;;;28.67;67.70;98778.80;125055;1093;64244;-76
2021/07/16 09:41:51;;;;;;;36.67;33.67;;;;;;;28.66;67.80;98772.48;125021;1093;64389;-77
2021/07/16 09:44:33;;;;;;;37.40;33.70;;;;;;;28.89;68.33;98777.33;125033;1093;64176;-77
2021/07/16 09:47:13;;;;;;;35.83;32.30;;;;;;;29.08;67.53;98767.23;124906;1093;64303;-77
2021/07/16 09:49:42;;;;;;;32.53;29.33;;;;;;;29.00;66.78;98772.99;124979;1093;64210;-76
2021/07/16 09:52:18;;;;;;;33.73;30.73;;;;;;;29.10;67.25;98772.51;125001;1093;64244;-76
2021/07/16 09:55:07;;;;;;;33.57;30.47;;;;;;;29.16;66.31;98771.58;124817;1093;64450;-77
2021/07/16 09:57:49;;;;;;;31.58;28.73;;;;;;;29.10;67.10;98767.86;124990;1093;64274;-76
2021/07/16 10:00:18;;;;;;;33.70;30.53;;;;;;;29.28;64.89;98779.88;125053;1092;64287;-76
2021/07/16 10:02:47;;;;;;;33.87;30.67;;;;;;;29.13;65.71;98780.28;124888;1093;64303;-76
2021/07/16 10:05:15;;;;;;;35.00;31.43;;;;;;;29.23;65.67;98780.59;125055;1092;64319;-76
2021/07/16 10:07:44;;;;;;;34.40;31.03;;;;;;;29.34;66.25;98772.66;124988;1092;64408;-76
2021/07/16 10:10:17;;;;;;;33.33;30.27;;;;;;;29.57;66.39;98772.79;125014;1093;64431;-76
2021/07/16 10:12:46;;;;;;;31.60;28.90;;;;;;;29.69;65.92;98778.36;124983;1093;64219;-76
2021/07/16 10:15:16;;;;;;;33.13;29.70;;;;;;;29.77;64.68;98777.20;125099;1093;64238;-76
2021/07/16 10:17:44;;;;;;;33.17;30.03;;;;;;;29.75;64.77;98763.68;125035;1093;64760;-76
2021/07/16 10:20:14;;;;;;;31.53;28.30;;;;;;;29.94;65.78;98764.49;125022;1093;64210;-76
2021/07/16 10:22:44;;;;;;;30.47;27.67;;;;;;;30.03;64.65;98767.73;125069;1093;64431;-76
2021/07/16 10:25:18;;;;;;;32.13;29.17;;;;;;;29.86;65.24;98757.41;124928;1093;64342;-76
2021/07/16 10:27:46;;;;;;;31.25;28.45;;;;;;;29.86;64.96;98767.55;125080;1093;64271;-76
2021/07/16 10:30:18;;;;;;;30.83;28.10;;;;;;;30.02;65.08;98766.91;125047;1093;64372;-76
2021/07/16 10:32:54;;;;;;;30.27;27.57;;;;;;;30.23;64.26;98768.30;125058;1092;64380;-75
2021/07/16 10:35:25;;;;;;;29.60;26.97;;;;;;;30.54;62.57;98772.63;125051;1093;64185;-75
2021/07/16 10:38:05;;;;;;;32.63;29.53;;;;;;;30.53;62.63;98776.47;125123;1093;64222;-77
2021/07/16 10:40:45;;;;;;;31.83;28.97;;;;;;;30.55;63.25;98771.58;125043;1093;64197;-77
2021/07/16 10:43:28;;;;;;;30.33;27.70;;;;;;;30.73;63.11;98778.02;125053;1093;64191;-77
2021/07/16 10:45:57;;;;;;;32.80;29.60;;;;;;;31.04;61.80;98774.96;124988;1093;64268;-75
2021/07/16 10:48:37;;;;;;;;;;;;;;;30.96;61.32;98772.55;125080;1093;64277;-75
2021/07/16 10:51:07;;;;;;;28.97;26.27;;;;;;;30.79;61.76;98769.66;125035;1093;64284;-75
2021/07/16 10:53:34;;;;;;;30.17;27.17;;;;;;;30.93;61.79;98773.03;125029;1093;64271;-75
2021/07/16 10:56:04;;;;;;;28.53;26.07;;;;;;;31.15;61.93;98781.53;125055;1092;64274;-76
2021/07/16 10:58:52;;;;;;;27.90;25.20;;;;;;;31.13;61.32;98775.42;125053;1093;64345;-76
2021/07/16 11:01:41;;;;;;;29.17;26.57;;;;;;;31.09;60.60;98779.72;125184;1093;64287;-80
2021/07/16 11:04:29;;;;;;;29.70;26.73;;;;;;;31.14;61.56;98776.25;125210;1093;64202;-86
2021/07/16 11:06:58;;;;;;;26.23;23.80;;;;;;;31.31;60.45;98766.17;125070;1093;64213;-83
2021/07/16 11:09:33;;;;;;;;;;;;;;;31.38;60.00;98769.64;125312;1093;64149;-84
2021/07/16 11:12:20;;;;;;;27.43;24.53;;;;;;;31.39;59.77;98767.75;125197;1093;64271;-83
2021/07/16 11:14:47;;;;;;;26.57;24.13;;;;;;;31.44;60.11;98765.93;125122;1093;64376;-82
2021/07/16 11:17:37;;;;;;;27.53;24.90;;;;;;;31.70;60.35;98775.55;125193;1093;64288;-82
2021/07/16 11:20:31;;;;;;;26.83;24.13;;;;;;;31.95;59.91;98773.55;125139;1093;64721;-81
2021/07/16 11:22:58;;;;;;;26.20;23.73;;;;;;;32.03;59.30;98770.39;125172;1093;64265;-80
2021/07/16 11:25:27;;;;;;;23.85;21.80;;;;;;;32.11;58.88;98778.25;125091;1093;64326;-81
2021/07/16 11:27:54;;;;;;;27.80;25.00;;;;;;;32.16;58.82;98772.84;125135;1093;64267;-80
2021/07/16 11:30:22;;;;;;;25.73;23.33;;;;;;;32.23;58.59;98765.25;125119;1093;64264;-80
2021/07/16 11:32:49;;;;;;;24.57;22.37;;;;;;;32.27;58.62;98768.33;124948;1093;64257;-78
2021/07/16 11:35:17;;;;;;;25.03;22.83;;;;;;;32.21;56.86;98767.41;125048;1093;64234;-78
2021/07/16 11:37:48;;;;;;;25.10;22.70;;;;;;;32.03;57.05;98760.20;124983;1093;64326;-78
2021/07/16 11:40:27;;;;;;;26.03;23.40;;;;;;;31.94;56.91;98761.70;125021;1093;64268;-79
2021/07/16 11:42:59;;;;;;;25.33;23.15;;;;;;;31.89;57.59;98753.30;124975;1093;64219;-79
2021/07/16 11:45:33;;;;;;;24.97;22.87;;;;;;;32.00;57.70;98763.45;125054;1093;64191;-79
2021/07/16 11:48:12;;;;;;;26.37;23.77;;;;;;;31.93;57.59;98760.00;125017;1093;64338;-79
2021/07/16 11:50:39;;;;;;;23.28;21.13;;;;;;;31.71;57.43;98762.60;125058;1093;64272;-79
2021/07/16 11:53:08;;;;;;;24.87;22.50;;;;;;;31.45;57.95;98756.58;124871;1093;64257;-79
2021/07/16 11:55:36;;;;;;;24.85;22.70;;;;;;;31.37;57.73;98764.36;125066;1093;64284;-79
2021/07/16 11:58:05;;;;;;;25.43;22.90;;;;;;;31.17;57.41;98767.50;125003;1093;64260;-78
2021/07/16 12:00:35;;;;;;;25.63;23.05;;;;;;;30.93;57.23;98778.54;125105;1093;64297;-78
2021/07/16 12:03:03;;;;;;;24.83;22.57;;;;;;;30.80;57.71;98768.58;124979;1091;64287;-78
2021/07/16 12:05:32;;;;;;;25.27;22.73;;;;;;;30.54;57.35;98764.38;124928;1093;64371;-78
2021/07/16 12:07:59;;;;;;;22.50;20.40;;;;;;;30.52;57.33;98757.47;125071;1093;64267;-78
2021/07/16 12:10:27;;;;;;;23.27;20.97;;;;;;;30.63;57.38;98754.72;125010;1093;64191;-78
2021/07/16 12:13:01;;;;;;;22.47;20.37;;;;;;;30.83;57.03;98759.90;125051;1093;64268;-81
2021/07/16 12:15:29;;;;;;;22.60;20.67;;;;;;;30.87;55.82;98774.00;125109;1093;64297;-80
2021/07/16 12:17:59;;;;;;;21.87;19.87;;;;;;;30.80;56.60;98764.99;125143;1092;64290;-80
2021/07/16 12:20:33;;;;;;;21.80;19.60;;;;;;;30.77;56.62;98762.73;124978;1093;64274;-80
2021/07/16 12:23:07;;;;;;;22.63;20.73;;;;;;;30.94;56.95;98757.35;125126;1093;64245;-80
2021/07/16 12:25:37;;;;;;;20.67;18.97;;;;;;;31.05;57.13;98756.52;124964;1093;64242;-80
2021/07/16 12:28:07;;;;;;;17.67;15.93;;;;;;;31.08;55.35;98746.95;125092;1093;64293;-80
2021/07/16 12:30:37;;;;;;;16.10;14.60;;;;;;;30.99;54.11;98750.08;125089;1093;64421;-80
2021/07/16 12:33:07;;;;;;;14.33;13.07;;;;;;;30.89;52.68;98740.75;124988;1093;64370;-81
2021/07/16 12:35:43;;;;;;;13.27;12.07;;;;;;;30.78;52.46;98745.13;125017;1093;64485;-81
2021/07/16 12:38:14;;;;;;;16.27;14.10;;;;;;;30.54;51.79;98747.88;125148;1093;64383;-81
2021/07/16 12:40:44;;;;;;;13.50;12.13;;;;;;;30.42;52.72;98744.30;125174;1092;64252;-81
2021/07/16 12:43:14;;;;;;;13.53;12.40;;;;;;;30.54;53.69;98730.55;125247;1093;64287;-81
2021/07/16 12:45:52;;;;;;;14.80;13.27;;;;;;;30.62;53.44;98728.30;125273;1093;64268;-81
2021/07/16 12:48:29;;;;;;;16.83;14.33;;;;;;;30.85;54.54;98732.13;125179;1093;64369;-81
2021/07/16 12:51:03;;;;;;;15.00;13.60;;;;;;;31.06;54.52;98730.66;125150;1093;64265;-81
2021/07/16 12:53:35;;;;;;;14.25;12.80;;;;;;;31.14;53.72;98729.45;125084;1092;64293;-81
2021/07/16 12:56:28;;;;;;;14.10;12.83;;;;;;;30.93;51.78;98720.75;125102;1093;64338;-81
2021/07/16 12:58:57;;;;;;;13.60;11.83;;;;;;;30.74;51.49;98714.52;125136;1093;64271;-81
2021/07/16 13:01:31;;;;;;;15.07;13.70;;;;;;;30.67;51.78;98711.05;125042;1093;64266;-80
2021/07/16 13:04:14;;;;;;;14.07;12.90;;;;;;;30.71;53.48;98723.26;125149;1093;64271;-81
2021/07/16 13:06:42;;;;;;;14.47;12.37;;;;;;;30.69;51.88;98724.58;124978;1093;64373;-80
2021/07/16 13:09:26;;;;;;;14.50;13.00;;;;;;;30.66;51.61;98720.39;125110;1093;64202;-80
2021/07/16 13:12:12;;;;;;;15.47;13.80;;;;;;;30.45;51.63;98721.82;125080;1093;64283;-80
2021/07/16 13:14:42;;;;;;;14.63;13.13;;;;;;;30.40;51.22;98713.45;125157;1093;64287;-80
2021/07/16 13:17:24;;;;;;;15.97;14.40;;;;;;;30.36;51.79;98723.23;125172;1092;64220;-81
2021/07/16 13:20:17;;;;;;;15.80;14.50;;;;;;;30.40;52.65;98718.95;125064;1093;64248;-80
2021/07/16 13:22:46;;;;;;;16.80;15.27;;;;;;;30.59;52.96;98723.25;125220;1093;64232;-81
2021/07/16 13:25:15;;;;;;;;;;;;;;;30.49;53.02;98720.28;125283;1093;64287;-81
2021/07/16 13:27:45;;;;;;;15.97;14.57;;;;;;;30.28;51.87;98713.45;125126;1093;64271;-81
2021/07/16 13:30:13;;;;;;;17.10;15.30;;;;;;;29.90;52.35;98711.89;125050;1093;64361;-81
2021/07/16 13:32:43;;;;;;;15.83;14.37;;;;;;;29.72;53.01;98718.28;124988;1093;64194;-81
2021/07/16 13:35:12;;;;;;;15.47;14.17;;;;;;;29.61;53.44;98718.23;125030;1093;64290;-81
2021/07/16 13:37:40;;;;;;;16.43;15.07;;;;;;;29.48;53.71;98733.80;125203;1093;64226;-81
2021/07/16 13:40:08;;;;;;;15.80;14.30;;;;;;;29.57;53.69;98731.59;125208;1092;64278;-81
2021/07/16 13:42:41;;;;;;;18.73;16.37;;;;;;;29.37;53.80;98729.10;125226;1093;64334;-81
2021/07/16 13:45:09;;;;;;;16.23;14.63;;;;;;;29.22;54.15;98734.14;125153;1092;64294;-81
2021/07/16 13:47:36;;;;;;;16.70;14.97;;;;;;;29.05;55.59;98739.42;124923;1093;64441;-81
2021/07/16 13:50:06;;;;;;;19.00;17.30;;;;;;;28.85;55.84;98732.20;125104;1092;64290;-81
2021/07/16 13:52:33;;;;;;;20.63;18.33;;;;;;;28.83;57.14;98726.13;125124;1093;64303;-81
2021/07/16 13:55:01;;;;;;;18.77;17.10;;;;;;;28.96;57.61;98716.89;125130;1093;64271;-81
2021/07/16 13:57:28;;;;;;;25.77;18.10;;;;;;;29.08;58.56;98725.23;125076;1093;64268;-81
2021/07/16 13:59:55;;;;;;;16.87;15.27;;;;;;;28.96;56.79;98727.03;125144;1092;64267;-80
2021/07/16 14:02:22;;;;;;;16.87;15.27;;;;;;;28.65;56.67;98735.16;125154;1092;65072;-81
2021/07/16 14:04:49;;;;;;;16.10;14.70;;;;;;;28.61;57.24;98733.09;125136;1093;64342;-81
2021/07/16 14:07:17;;;;;;;15.70;14.40;;;;;;;28.59;57.19;98732.47;125138;1092;64267;-81
2021/07/16 14:09:44;;;;;;;18.60;16.37;;;;;;;28.61;57.34;98733.09;125127;1093;64386;-80
2021/07/16 14:12:11;;;;;;;16.27;14.87;;;;;;;28.54;57.42;98726.83;125168;1093;64271;-81
2021/07/16 14:14:41;;;;;;;17.10;15.53;;;;;;;28.53;57.61;98736.13;125120;1093;64223;-81
2021/07/16 14:17:09;;;;;;;18.33;16.73;;;;;;;28.49;57.90;98738.49;125028;1093;64360;-81
2021/07/16 14:19:36;;;;;;;16.03;14.43;;;;;;;28.54;58.39;98732.31;125028;1092;64278;-81
2021/07/16 14:22:03;;;;;;;16.67;15.17;;;;;;;28.54;57.91;98732.31;125119;1093;64274;-82
2021/07/16 14:24:30;;;;;;;15.60;14.17;;;;;;;28.50;57.94;98737.41;125130;1092;64380;-81
2021/07/16 14:26:59;;;;;;;16.47;14.77;;;;;;;28.52;57.87;98735.30;125119;1092;64738;-81
2021/07/16 14:29:26;;;;;;;16.27;14.20;;;;;;;28.51;58.13;98727.28;125134;1092;64271;-81
2021/07/16 14:31:55;;;;;;;17.70;15.90;;;;;;;28.57;58.25;98719.02;125002;1093;64309;-81
2021/07/16 14:34:22;;;;;;;16.00;14.43;;;;;;;28.72;58.34;98721.38;125125;1093;64188;-80
2021/07/16 14:36:49;;;;;;;19.50;16.23;;;;;;;28.83;58.48;98715.16;125084;1093;64399;-80
2021/07/16 14:39:16;;;;;;;16.97;15.20;;;;;;;28.90;58.20;98720.55;125142;1093;64301;-80
2021/07/16 14:41:43;;;;;;;17.57;15.83;;;;;;;28.85;57.92;98709.42;125130;1093;64306;-80
2021/07/16 14:44:11;;;;;;;17.43;15.77;;;;;;;28.82;58.16;98710.72;125113;1093;64299;-80
2021/07/16 14:46:38;;;;;;;16.77;15.17;;;;;;;28.86;58.56;98713.86;125129;1093;64654;-80
2021/07/16 14:49:06;;;;;;;15.60;14.10;;;;;;;28.96;58.72;98708.66;125097;1093;64434;-80
2021/07/16 14:51:36;;;;;;;16.77;15.07;;;;;;;28.99;58.57;98708.22;125093;1093;64293;-81
2021/07/16 14:54:06;;;;;;;14.93;13.53;;;;;;;29.05;58.05;98714.73;125020;1092;64195;-81
2021/07/16 14:56:34;;;;;;;15.90;14.40;;;;;;;29.02;58.42;98720.65;125161;1093;64290;-81
2021/07/16 14:59:02;;;;;;;14.87;13.37;;;;;;;29.01;57.81;98717.04;125137;1093;64419;-79
2021/07/16 15:01:29;;;;;;;15.33;13.73;;;;;;;29.00;57.80;98711.80;125007;1092;64328;-81
2021/07/16 15:03:56;;;;;;;14.45;12.95;;;;;;;28.92;57.24;98712.94;125106;1093;64308;-81
2021/07/16 15:06:23;;;;;;;14.60;13.13;;;;;;;28.84;56.90;98711.34;125094;1093;64252;-81
2021/07/16 15:08:51;;;;;;;14.73;13.07;;;;;;;28.89;58.04;98716.14;125124;1093;64210;-81
2021/07/16 15:11:18;;;;;;;15.33;13.73;;;;;;;28.94;57.22;98707.20;124962;1093;64309;-81
2021/07/16 15:13:45;;;;;;;14.83;13.20;;;;;;;28.91;57.31;98707.67;125161;1092;64308;-82
2021/07/16 15:16:12;;;;;;;18.47;13.87;;;;;;;28.99;57.73;98702.73;125106;1093;64191;-81
2021/07/16 15:18:41;;;;;;;14.13;12.87;;;;;;;29.11;57.61;98700.08;125129;1093;64284;-81
2021/07/16 15:21:08;;;;;;;16.07;13.70;;;;;;;29.18;57.36;98694.52;125186;1093;64281;-81
2021/07/16 15:23:35;;;;;;;14.40;13.00;;;;;;;29.15;56.84;98693.08;125030;1092;64351;-81
2021/07/16 15:26:03;;;;;;;12.50;11.40;;;;;;;29.12;57.72;98696.25;125065;1093;64338;-81
2021/07/16 15:28:30;;;;;;;14.77;13.37;;;;;;;29.21;56.86;98694.05;125037;1093;64271;-81
2021/07/16 15:30:57;;;;;;;14.65;12.60;;;;;;;29.25;57.23;98695.25;125130;1093;64239;-81
2021/07/16 15:33:24;;;;;;;14.30;12.80;;;;;;;29.20;56.70;98703.34;125527;1092;64290;-81
2021/07/16 15:35:51;;;;;;;14.17;12.50;;;;;;;29.16;56.35;98707.63;125464;1093;64330;-81
2021/07/16 15:38:19;;;;;;;12.77;11.67;;;;;;;29.06;56.04;98697.19;125441;1093;64379;-81
2021/07/16 15:40:46;;;;;;;13.80;12.50;;;;;;;28.88;56.60;98693.37;125122;1093;64287;-81
2021/07/16 15:43:13;;;;;;;15.43;13.03;;;;;;;28.75;56.48;98689.91;125465;1093;64226;-81
2021/07/16 15:45:40;;;;;;;14.45;13.00;;;;;;;28.74;57.44;98694.56;125380;1093;64236;-81